sensor_id;sensor_type;location;lat;lon;timestamp;P1;durP1;ratioP1;P2;durP2;ratioP2
71298;SDS011;59083;47.974;21.722;2023-05-07T00:01:09;10.03;;;6.80;;
71298;SDS011;59083;47.974;21.722;2023-05-07T00:04:12;12.15;;;7.35;;
71298;SDS011;59083;47.974;21.722;2023-05-07T00:07:14;11.07;;;6.62;;
71298;SDS011;59083;47.974;21.722;2023-05-07T00:10:16;11.80;;;7.45;;
71298;SDS011;59083;47.974;21.722;2023-05-07T00:13:17;10.45;;;7.18;;
71298;SDS011;59083;47.974;21.722;2023-05-07T00:16:18;10.97;;;7.17;;
71298;SDS011;59083;47.974;21.722;2023-05-07T00:19:19;10.50;;;7.05;;
71298;SDS011;59083;47.974;21.722;2023-05-07T00:22:20;11.02;;;7.18;;
71298;SDS011;59083;47.974;21.722;2023-05-07T00:25:22;12.65;;;7.57;;
71298;SDS011;59083;47.974;21.722;2023-05-07T00:28:23;11.63;;;7.30;;
71298;SDS011;59083;47.974;21.722;2023-05-07T00:31:24;10.47;;;7.17;;
71298;SDS011;59083;47.974;21.722;2023-05-07T00:34:25;12.48;;;7.62;;
71298;SDS011;59083;47.974;21.722;2023-05-07T00:37:26;12.10;;;7.78;;
71298;SDS011;59083;47.974;21.722;2023-05-07T00:40:28;11.90;;;7.57;;
71298;SDS011;59083;47.974;21.722;2023-05-07T00:43:29;11.38;;;8.07;;
71298;SDS011;59083;47.974;21.722;2023-05-07T00:46:30;13.73;;;7.90;;
71298;SDS011;59083;47.974;21.722;2023-05-07T00:49:42;12.55;;;8.07;;
71298;SDS011;59083;47.974;21.722;2023-05-07T00:52:45;12.00;;;7.97;;
71298;SDS011;59083;47.974;21.722;2023-05-07T00:55:46;12.65;;;8.18;;
71298;SDS011;59083;47.974;21.722;2023-05-07T00:58:48;13.43;;;8.15;;
71298;SDS011;59083;47.974;21.722;2023-05-07T01:01:49;13.20;;;8.40;;
71298;SDS011;59083;47.974;21.722;2023-05-07T01:04:51;13.30;;;8.70;;
71298;SDS011;59083;47.974;21.722;2023-05-07T01:07:52;12.70;;;8.35;;
71298;SDS011;59083;47.974;21.722;2023-05-07T01:10:56;13.02;;;8.38;;
71298;SDS011;59083;47.974;21.722;2023-05-07T01:13:58;15.32;;;9.23;;
71298;SDS011;59083;47.974;21.722;2023-05-07T01:17:00;13.57;;;8.93;;
71298;SDS011;59083;47.974;21.722;2023-05-07T01:20:02;15.25;;;8.98;;
71298;SDS011;59083;47.974;21.722;2023-05-07T01:23:05;14.70;;;9.32;;
71298;SDS011;59083;47.974;21.722;2023-05-07T01:26:07;15.75;;;9.88;;
71298;SDS011;59083;47.974;21.722;2023-05-07T01:29:09;13.70;;;9.38;;
71298;SDS011;59083;47.974;21.722;2023-05-07T01:32:11;13.53;;;9.20;;
71298;SDS011;59083;47.974;21.722;2023-05-07T01:35:18;14.52;;;9.60;;
71298;SDS011;59083;47.974;21.722;2023-05-07T01:38:21;14.87;;;10.75;;
71298;SDS011;59083;47.974;21.722;2023-05-07T01:41:24;14.90;;;9.95;;
71298;SDS011;59083;47.974;21.722;2023-05-07T01:44:26;15.77;;;10.48;;
71298;SDS011;59083;47.974;21.722;2023-05-07T01:47:29;16.90;;;10.73;;
71298;SDS011;59083;47.974;21.722;2023-05-07T01:50:31;14.90;;;10.38;;
71298;SDS011;59083;47.974;21.722;2023-05-07T01:53:36;15.90;;;10.70;;
71298;SDS011;59083;47.974;21.722;2023-05-07T01:56:38;15.73;;;10.75;;
71298;SDS011;59083;47.974;21.722;2023-05-07T01:59:39;15.35;;;10.23;;
71298;SDS011;59083;47.974;21.722;2023-05-07T02:02:41;16.30;;;10.90;;
71298;SDS011;59083;47.974;21.722;2023-05-07T02:05:44;18.25;;;11.35;;
71298;SDS011;59083;47.974;21.722;2023-05-07T02:08:46;16.67;;;11.10;;
71298;SDS011;59083;47.974;21.722;2023-05-07T02:11:48;17.77;;;11.93;;
71298;SDS011;59083;47.974;21.722;2023-05-07T02:14:51;16.15;;;11.05;;
71298;SDS011;59083;47.974;21.722;2023-05-07T02:18:05;18.57;;;11.23;;
71298;SDS011;59083;47.974;21.722;2023-05-07T02:21:12;16.60;;;11.02;;
71298;SDS011;59083;47.974;21.722;2023-05-07T02:24:14;20.70;;;11.30;;
71298;SDS011;59083;47.974;21.722;2023-05-07T02:27:15;17.12;;;10.70;;
71298;SDS011;59083;47.974;21.722;2023-05-07T02:30:17;17.40;;;11.77;;
71298;SDS011;59083;47.974;21.722;2023-05-07T02:33:19;16.67;;;11.17;;
71298;SDS011;59083;47.974;21.722;2023-05-07T02:36:22;18.80;;;11.18;;
71298;SDS011;59083;47.974;21.722;2023-05-07T02:39:24;19.90;;;12.02;;
71298;SDS011;59083;47.974;21.722;2023-05-07T02:42:25;16.70;;;10.73;;
71298;SDS011;59083;47.974;21.722;2023-05-07T02:45:27;18.12;;;11.55;;
71298;SDS011;59083;47.974;21.722;2023-05-07T02:48:28;18.03;;;11.10;;
71298;SDS011;59083;47.974;21.722;2023-05-07T02:51:30;16.87;;;10.98;;
71298;SDS011;59083;47.974;21.722;2023-05-07T02:54:32;16.37;;;11.43;;
71298;SDS011;59083;47.974;21.722;2023-05-07T02:57:33;16.35;;;10.85;;
71298;SDS011;59083;47.974;21.722;2023-05-07T03:00:35;15.68;;;11.05;;
71298;SDS011;59083;47.974;21.722;2023-05-07T03:03:38;16.63;;;11.13;;
71298;SDS011;59083;47.974;21.722;2023-05-07T03:06:40;16.55;;;10.85;;
71298;SDS011;59083;47.974;21.722;2023-05-07T03:09:41;18.30;;;11.98;;
71298;SDS011;59083;47.974;21.722;2023-05-07T03:12:43;16.17;;;11.52;;
71298;SDS011;59083;47.974;21.722;2023-05-07T03:15:45;17.83;;;11.73;;
71298;SDS011;59083;47.974;21.722;2023-05-07T03:18:46;19.03;;;11.67;;
71298;SDS011;59083;47.974;21.722;2023-05-07T03:21:47;17.37;;;11.48;;
71298;SDS011;59083;47.974;21.722;2023-05-07T03:24:49;17.98;;;11.98;;
71298;SDS011;59083;47.974;21.722;2023-05-07T03:27:50;17.27;;;11.90;;
71298;SDS011;59083;47.974;21.722;2023-05-07T03:30:52;19.27;;;12.37;;
71298;SDS011;59083;47.974;21.722;2023-05-07T03:33:54;18.00;;;12.43;;
71298;SDS011;59083;47.974;21.722;2023-05-07T03:36:57;17.58;;;11.57;;
71298;SDS011;59083;47.974;21.722;2023-05-07T03:39:59;18.23;;;12.63;;
71298;SDS011;59083;47.974;21.722;2023-05-07T03:43:01;18.08;;;12.02;;
71298;SDS011;59083;47.974;21.722;2023-05-07T03:46:03;19.92;;;12.98;;
71298;SDS011;59083;47.974;21.722;2023-05-07T03:49:05;19.20;;;12.50;;
71298;SDS011;59083;47.974;21.722;2023-05-07T03:52:06;18.42;;;12.90;;
71298;SDS011;59083;47.974;21.722;2023-05-07T03:55:08;26.50;;;17.58;;
71298;SDS011;59083;47.974;21.722;2023-05-07T03:58:10;19.65;;;13.25;;
71298;SDS011;59083;47.974;21.722;2023-05-07T04:01:12;20.80;;;12.98;;
71298;SDS011;59083;47.974;21.722;2023-05-07T04:04:13;19.00;;;12.10;;
71298;SDS011;59083;47.974;21.722;2023-05-07T04:07:15;22.67;;;13.25;;
71298;SDS011;59083;47.974;21.722;2023-05-07T04:10:17;19.85;;;13.18;;
71298;SDS011;59083;47.974;21.722;2023-05-07T04:13:19;18.48;;;12.37;;
71298;SDS011;59083;47.974;21.722;2023-05-07T04:16:20;20.50;;;13.07;;
71298;SDS011;59083;47.974;21.722;2023-05-07T04:19:21;20.10;;;12.87;;
71298;SDS011;59083;47.974;21.722;2023-05-07T04:22:23;20.17;;;13.00;;
71298;SDS011;59083;47.974;21.722;2023-05-07T04:25:25;20.70;;;13.15;;
71298;SDS011;59083;47.974;21.722;2023-05-07T04:28:28;21.67;;;12.50;;
71298;SDS011;59083;47.974;21.722;2023-05-07T04:31:29;20.05;;;12.50;;
71298;SDS011;59083;47.974;21.722;2023-05-07T04:34:31;21.50;;;13.47;;
71298;SDS011;59083;47.974;21.722;2023-05-07T04:37:33;19.83;;;13.07;;
71298;SDS011;59083;47.974;21.722;2023-05-07T04:40:35;17.17;;;12.27;;
71298;SDS011;59083;47.974;21.722;2023-05-07T04:43:37;18.45;;;12.07;;
71298;SDS011;59083;47.974;21.722;2023-05-07T04:46:38;17.48;;;11.68;;
71298;SDS011;59083;47.974;21.722;2023-05-07T04:49:39;17.17;;;12.13;;
71298;SDS011;59083;47.974;21.722;2023-05-07T04:52:42;20.15;;;12.55;;
71298;SDS011;59083;47.974;21.722;2023-05-07T04:55:44;16.20;;;11.57;;
71298;SDS011;59083;47.974;21.722;2023-05-07T04:58:46;18.00;;;12.10;;
71298;SDS011;59083;47.974;21.722;2023-05-07T05:01:49;18.83;;;12.48;;
71298;SDS011;59083;47.974;21.722;2023-05-07T05:04:50;18.57;;;12.07;;
71298;SDS011;59083;47.974;21.722;2023-05-07T05:07:52;17.65;;;11.90;;
71298;SDS011;59083;47.974;21.722;2023-05-07T05:10:54;16.85;;;11.55;;
71298;SDS011;59083;47.974;21.722;2023-05-07T05:13:55;20.12;;;12.57;;
71298;SDS011;59083;47.974;21.722;2023-05-07T05:16:56;19.62;;;11.55;;
71298;SDS011;59083;47.974;21.722;2023-05-07T05:19:58;14.90;;;10.40;;
71298;SDS011;59083;47.974;21.722;2023-05-07T05:22:59;14.20;;;9.52;;
71298;SDS011;59083;47.974;21.722;2023-05-07T05:26:00;13.50;;;9.50;;
71298;SDS011;59083;47.974;21.722;2023-05-07T05:29:03;17.40;;;10.45;;
71298;SDS011;59083;47.974;21.722;2023-05-07T05:32:04;14.82;;;9.55;;
71298;SDS011;59083;47.974;21.722;2023-05-07T05:35:06;15.07;;;8.90;;
71298;SDS011;59083;47.974;21.722;2023-05-07T05:38:08;14.23;;;9.00;;
71298;SDS011;59083;47.974;21.722;2023-05-07T05:41:09;12.15;;;8.23;;
71298;SDS011;59083;47.974;21.722;2023-05-07T05:44:11;11.93;;;8.57;;
71298;SDS011;59083;47.974;21.722;2023-05-07T05:47:14;10.55;;;7.93;;
71298;SDS011;59083;47.974;21.722;2023-05-07T05:50:16;11.77;;;8.20;;
71298;SDS011;59083;47.974;21.722;2023-05-07T05:53:18;10.43;;;7.47;;
71298;SDS011;59083;47.974;21.722;2023-05-07T05:56:19;11.60;;;7.45;;
71298;SDS011;59083;47.974;21.722;2023-05-07T05:59:21;11.50;;;7.97;;
71298;SDS011;59083;47.974;21.722;2023-05-07T06:02:22;12.57;;;7.68;;
71298;SDS011;59083;47.974;21.722;2023-05-07T06:05:23;10.43;;;7.60;;
71298;SDS011;59083;47.974;21.722;2023-05-07T06:08:28;10.65;;;7.43;;
71298;SDS011;59083;47.974;21.722;2023-05-07T06:11:31;10.93;;;8.07;;
71298;SDS011;59083;47.974;21.722;2023-05-07T06:14:33;13.05;;;8.13;;
71298;SDS011;59083;47.974;21.722;2023-05-07T06:17:35;13.82;;;8.63;;
71298;SDS011;59083;47.974;21.722;2023-05-07T06:20:36;10.40;;;7.30;;
71298;SDS011;59083;47.974;21.722;2023-05-07T06:23:38;12.48;;;7.12;;
71298;SDS011;59083;47.974;21.722;2023-05-07T06:26:39;11.07;;;7.10;;
71298;SDS011;59083;47.974;21.722;2023-05-07T06:29:41;11.23;;;6.87;;
71298;SDS011;59083;47.974;21.722;2023-05-07T06:32:44;11.45;;;7.25;;
71298;SDS011;59083;47.974;21.722;2023-05-07T06:35:46;11.50;;;7.60;;
71298;SDS011;59083;47.974;21.722;2023-05-07T06:38:47;12.60;;;7.78;;
71298;SDS011;59083;47.974;21.722;2023-05-07T06:41:49;10.45;;;6.97;;
71298;SDS011;59083;47.974;21.722;2023-05-07T06:44:51;10.95;;;7.20;;
71298;SDS011;59083;47.974;21.722;2023-05-07T06:47:52;11.65;;;7.97;;
71298;SDS011;59083;47.974;21.722;2023-05-07T06:50:54;11.43;;;7.87;;
71298;SDS011;59083;47.974;21.722;2023-05-07T06:53:58;13.20;;;8.70;;
71298;SDS011;59083;47.974;21.722;2023-05-07T06:57:00;11.73;;;8.52;;
71298;SDS011;59083;47.974;21.722;2023-05-07T07:00:02;13.02;;;8.43;;
71298;SDS011;59083;47.974;21.722;2023-05-07T07:03:05;14.13;;;9.02;;
71298;SDS011;59083;47.974;21.722;2023-05-07T07:06:07;15.50;;;8.97;;
71298;SDS011;59083;47.974;21.722;2023-05-07T07:09:08;14.05;;;9.30;;
71298;SDS011;59083;47.974;21.722;2023-05-07T07:12:10;14.50;;;8.98;;
71298;SDS011;59083;47.974;21.722;2023-05-07T07:15:13;18.83;;;8.77;;
71298;SDS011;59083;47.974;21.722;2023-05-07T07:18:15;14.45;;;8.73;;
71298;SDS011;59083;47.974;21.722;2023-05-07T07:21:17;13.03;;;8.53;;
71298;SDS011;59083;47.974;21.722;2023-05-07T07:24:18;13.30;;;8.05;;
71298;SDS011;59083;47.974;21.722;2023-05-07T07:27:22;13.93;;;7.87;;
71298;SDS011;59083;47.974;21.722;2023-05-07T07:30:24;12.48;;;7.85;;
71298;SDS011;59083;47.974;21.722;2023-05-07T07:33:26;14.32;;;8.82;;
71298;SDS011;59083;47.974;21.722;2023-05-07T07:36:28;12.70;;;8.13;;
71298;SDS011;59083;47.974;21.722;2023-05-07T07:39:29;13.43;;;7.60;;
71298;SDS011;59083;47.974;21.722;2023-05-07T07:42:31;12.20;;;7.85;;
71298;SDS011;59083;47.974;21.722;2023-05-07T07:45:32;13.60;;;8.25;;
71298;SDS011;59083;47.974;21.722;2023-05-07T07:48:35;12.32;;;8.20;;
71298;SDS011;59083;47.974;21.722;2023-05-07T07:51:36;14.13;;;8.60;;
71298;SDS011;59083;47.974;21.722;2023-05-07T07:54:37;15.30;;;8.48;;
71298;SDS011;59083;47.974;21.722;2023-05-07T07:57:38;14.00;;;8.63;;
71298;SDS011;59083;47.974;21.722;2023-05-07T08:00:40;13.20;;;8.55;;
71298;SDS011;59083;47.974;21.722;2023-05-07T08:03:42;14.57;;;8.23;;
71298;SDS011;59083;47.974;21.722;2023-05-07T08:06:43;13.70;;;8.67;;
71298;SDS011;59083;47.974;21.722;2023-05-07T08:09:45;14.07;;;9.00;;
71298;SDS011;59083;47.974;21.722;2023-05-07T08:12:47;13.62;;;8.60;;
71298;SDS011;59083;47.974;21.722;2023-05-07T08:15:49;12.55;;;8.30;;
71298;SDS011;59083;47.974;21.722;2023-05-07T08:18:51;15.50;;;9.57;;
71298;SDS011;59083;47.974;21.722;2023-05-07T08:21:52;14.67;;;9.03;;
71298;SDS011;59083;47.974;21.722;2023-05-07T08:24:54;14.45;;;8.68;;
71298;SDS011;59083;47.974;21.722;2023-05-07T08:27:56;13.75;;;8.45;;
71298;SDS011;59083;47.974;21.722;2023-05-07T08:30:58;12.25;;;8.18;;
71298;SDS011;59083;47.974;21.722;2023-05-07T08:34:02;12.57;;;7.95;;
71298;SDS011;59083;47.974;21.722;2023-05-07T08:37:04;13.37;;;7.70;;
71298;SDS011;59083;47.974;21.722;2023-05-07T08:40:06;13.68;;;8.05;;
71298;SDS011;59083;47.974;21.722;2023-05-07T08:43:08;13.02;;;7.60;;
71298;SDS011;59083;47.974;21.722;2023-05-07T08:46:15;11.23;;;7.37;;
71298;SDS011;59083;47.974;21.722;2023-05-07T08:49:19;11.52;;;8.18;;
71298;SDS011;59083;47.974;21.722;2023-05-07T08:52:21;11.37;;;7.97;;
71298;SDS011;59083;47.974;21.722;2023-05-07T08:55:23;13.18;;;7.72;;
71298;SDS011;59083;47.974;21.722;2023-05-07T08:58:25;12.88;;;8.50;;
71298;SDS011;59083;47.974;21.722;2023-05-07T09:01:26;13.30;;;8.02;;
71298;SDS011;59083;47.974;21.722;2023-05-07T09:04:28;12.68;;;8.57;;
71298;SDS011;59083;47.974;21.722;2023-05-07T09:07:30;12.03;;;8.37;;
71298;SDS011;59083;47.974;21.722;2023-05-07T09:10:33;13.18;;;8.68;;
71298;SDS011;59083;47.974;21.722;2023-05-07T09:13:36;12.48;;;8.23;;
71298;SDS011;59083;47.974;21.722;2023-05-07T09:16:38;14.25;;;8.50;;
71298;SDS011;59083;47.974;21.722;2023-05-07T09:19:40;11.32;;;7.78;;
71298;SDS011;59083;47.974;21.722;2023-05-07T09:22:42;10.67;;;7.13;;
71298;SDS011;59083;47.974;21.722;2023-05-07T09:25:45;12.50;;;7.60;;
71298;SDS011;59083;47.974;21.722;2023-05-07T09:28:47;12.30;;;8.10;;
71298;SDS011;59083;47.974;21.722;2023-05-07T09:31:48;11.35;;;8.45;;
71298;SDS011;59083;47.974;21.722;2023-05-07T09:34:50;14.65;;;8.60;;
71298;SDS011;59083;47.974;21.722;2023-05-07T09:37:52;15.13;;;9.30;;
71298;SDS011;59083;47.974;21.722;2023-05-07T09:41:07;13.57;;;9.30;;
71298;SDS011;59083;47.974;21.722;2023-05-07T09:44:10;16.50;;;9.27;;
71298;SDS011;59083;47.974;21.722;2023-05-07T09:47:12;14.10;;;9.25;;
71298;SDS011;59083;47.974;21.722;2023-05-07T09:50:19;13.57;;;8.48;;
71298;SDS011;59083;47.974;21.722;2023-05-07T09:53:26;13.13;;;8.90;;
71298;SDS011;59083;47.974;21.722;2023-05-07T09:56:30;12.85;;;8.55;;
71298;SDS011;59083;47.974;21.722;2023-05-07T09:59:32;13.20;;;9.25;;
71298;SDS011;59083;47.974;21.722;2023-05-07T10:02:36;13.45;;;8.90;;
71298;SDS011;59083;47.974;21.722;2023-05-07T10:05:38;13.02;;;8.77;;
71298;SDS011;59083;47.974;21.722;2023-05-07T10:08:40;14.40;;;9.50;;
71298;SDS011;59083;47.974;21.722;2023-05-07T10:11:44;13.80;;;9.15;;
71298;SDS011;59083;47.974;21.722;2023-05-07T10:14:46;13.70;;;8.80;;
71298;SDS011;59083;47.974;21.722;2023-05-07T10:17:49;13.62;;;8.75;;
71298;SDS011;59083;47.974;21.722;2023-05-07T10:20:52;14.05;;;8.85;;
71298;SDS011;59083;47.974;21.722;2023-05-07T10:27:04;11.80;;;8.32;;
71298;SDS011;59083;47.974;21.722;2023-05-07T10:33:11;11.55;;;8.10;;
71298;SDS011;59083;47.974;21.722;2023-05-07T10:36:16;13.85;;;8.60;;
71298;SDS011;59083;47.974;21.722;2023-05-07T10:39:19;13.53;;;8.13;;
71298;SDS011;59083;47.974;21.722;2023-05-07T10:42:22;13.60;;;8.05;;
71298;SDS011;59083;47.974;21.722;2023-05-07T10:45:24;12.70;;;8.32;;
71298;SDS011;59083;47.974;21.722;2023-05-07T10:48:26;15.73;;;8.00;;
71298;SDS011;59083;47.974;21.722;2023-05-07T10:51:28;13.35;;;7.32;;
71298;SDS011;59083;47.974;21.722;2023-05-07T10:54:32;13.13;;;7.60;;
71298;SDS011;59083;47.974;21.722;2023-05-07T10:57:34;11.20;;;7.15;;
71298;SDS011;59083;47.974;21.722;2023-05-07T11:07:25;11.02;;;7.15;;
71298;SDS011;59083;47.974;21.722;2023-05-07T11:13:57;10.93;;;7.30;;
71298;SDS011;59083;47.974;21.722;2023-05-07T11:17:04;11.75;;;7.80;;
71298;SDS011;59083;47.974;21.722;2023-05-07T11:20:06;11.27;;;7.10;;
71298;SDS011;59083;47.974;21.722;2023-05-07T11:23:08;11.05;;;6.75;;
71298;SDS011;59083;47.974;21.722;2023-05-07T11:26:10;9.90;;;6.93;;
71298;SDS011;59083;47.974;21.722;2023-05-07T11:29:13;11.10;;;7.10;;
71298;SDS011;59083;47.974;21.722;2023-05-07T11:35:25;9.63;;;6.18;;
71298;SDS011;59083;47.974;21.722;2023-05-07T11:38:27;14.32;;;6.72;;
71298;SDS011;59083;47.974;21.722;2023-05-07T11:41:36;8.57;;;5.77;;
71298;SDS011;59083;47.974;21.722;2023-05-07T11:44:43;8.50;;;6.00;;
71298;SDS011;59083;47.974;21.722;2023-05-07T11:47:46;10.35;;;5.95;;
71298;SDS011;59083;47.974;21.722;2023-05-07T11:50:51;8.43;;;5.15;;
71298;SDS011;59083;47.974;21.722;2023-05-07T11:53:53;8.25;;;5.60;;
71298;SDS011;59083;47.974;21.722;2023-05-07T11:56:55;10.67;;;6.80;;
71298;SDS011;59083;47.974;21.722;2023-05-07T11:59:57;11.02;;;5.97;;
71298;SDS011;59083;47.974;21.722;2023-05-07T12:03:03;10.38;;;5.60;;
71298;SDS011;59083;47.974;21.722;2023-05-07T12:06:05;10.80;;;6.40;;
71298;SDS011;59083;47.974;21.722;2023-05-07T12:09:07;8.90;;;5.82;;
71298;SDS011;59083;47.974;21.722;2023-05-07T12:12:12;9.27;;;5.43;;
71298;SDS011;59083;47.974;21.722;2023-05-07T12:15:16;8.48;;;5.47;;
71298;SDS011;59083;47.974;21.722;2023-05-07T12:18:18;8.85;;;5.07;;
71298;SDS011;59083;47.974;21.722;2023-05-07T12:21:20;9.30;;;5.37;;
71298;SDS011;59083;47.974;21.722;2023-05-07T12:24:24;8.15;;;5.30;;
71298;SDS011;59083;47.974;21.722;2023-05-07T12:27:25;8.10;;;4.83;;
71298;SDS011;59083;47.974;21.722;2023-05-07T12:30:27;9.05;;;4.75;;
71298;SDS011;59083;47.974;21.722;2023-05-07T12:33:28;10.02;;;5.37;;
71298;SDS011;59083;47.974;21.722;2023-05-07T12:36:38;8.75;;;4.75;;
71298;SDS011;59083;47.974;21.722;2023-05-07T12:39:49;9.15;;;5.50;;
71298;SDS011;59083;47.974;21.722;2023-05-07T12:43:07;8.30;;;5.13;;
71298;SDS011;59083;47.974;21.722;2023-05-07T12:46:08;9.85;;;5.87;;
71298;SDS011;59083;47.974;21.722;2023-05-07T12:49:10;10.55;;;6.12;;
71298;SDS011;59083;47.974;21.722;2023-05-07T12:52:11;10.50;;;6.47;;
71298;SDS011;59083;47.974;21.722;2023-05-07T12:55:16;10.07;;;5.97;;
71298;SDS011;59083;47.974;21.722;2023-05-07T12:58:21;10.37;;;6.07;;
71298;SDS011;59083;47.974;21.722;2023-05-07T13:01:29;10.90;;;6.05;;
71298;SDS011;59083;47.974;21.722;2023-05-07T13:04:32;9.00;;;5.95;;
71298;SDS011;59083;47.974;21.722;2023-05-07T13:07:34;10.05;;;6.47;;
71298;SDS011;59083;47.974;21.722;2023-05-07T13:10:35;9.13;;;5.93;;
71298;SDS011;59083;47.974;21.722;2023-05-07T13:13:37;11.33;;;6.13;;
71298;SDS011;59083;47.974;21.722;2023-05-07T13:16:39;9.95;;;6.28;;
71298;SDS011;59083;47.974;21.722;2023-05-07T13:19:40;11.38;;;6.10;;
71298;SDS011;59083;47.974;21.722;2023-05-07T13:22:42;9.68;;;6.10;;
71298;SDS011;59083;47.974;21.722;2023-05-07T13:25:43;9.82;;;5.78;;
71298;SDS011;59083;47.974;21.722;2023-05-07T13:28:44;9.60;;;5.60;;
71298;SDS011;59083;47.974;21.722;2023-05-07T13:31:45;9.85;;;5.97;;
71298;SDS011;59083;47.974;21.722;2023-05-07T13:34:46;9.85;;;5.37;;
71298;SDS011;59083;47.974;21.722;2023-05-07T13:37:48;9.95;;;5.10;;
71298;SDS011;59083;47.974;21.722;2023-05-07T13:40:49;9.25;;;4.55;;
71298;SDS011;59083;47.974;21.722;2023-05-07T13:43:51;8.67;;;4.80;;
71298;SDS011;59083;47.974;21.722;2023-05-07T13:46:52;12.45;;;4.72;;
71298;SDS011;59083;47.974;21.722;2023-05-07T13:49:53;8.73;;;4.32;;
71298;SDS011;59083;47.974;21.722;2023-05-07T13:52:54;8.10;;;4.25;;
71298;SDS011;59083;47.974;21.722;2023-05-07T13:55:55;7.70;;;4.20;;
71298;SDS011;59083;47.974;21.722;2023-05-07T13:58:56;9.87;;;3.60;;
71298;SDS011;59083;47.974;21.722;2023-05-07T14:01:58;9.05;;;3.50;;
71298;SDS011;59083;47.974;21.722;2023-05-07T14:04:59;6.10;;;3.10;;
71298;SDS011;59083;47.974;21.722;2023-05-07T14:08:00;5.93;;;2.90;;
71298;SDS011;59083;47.974;21.722;2023-05-07T14:11:02;10.35;;;2.90;;
71298;SDS011;59083;47.974;21.722;2023-05-07T14:14:03;7.30;;;2.90;;
71298;SDS011;59083;47.974;21.722;2023-05-07T14:17:04;9.13;;;3.10;;
71298;SDS011;59083;47.974;21.722;2023-05-07T14:20:05;5.80;;;2.90;;
71298;SDS011;59083;47.974;21.722;2023-05-07T14:23:07;7.65;;;2.72;;
71298;SDS011;59083;47.974;21.722;2023-05-07T14:26:08;5.82;;;2.70;;
71298;SDS011;59083;47.974;21.722;2023-05-07T14:29:10;6.30;;;2.90;;
71298;SDS011;59083;47.974;21.722;2023-05-07T14:32:11;7.35;;;3.22;;
71298;SDS011;59083;47.974;21.722;2023-05-07T14:35:13;6.43;;;3.00;;
71298;SDS011;59083;47.974;21.722;2023-05-07T14:38:14;7.35;;;3.20;;
71298;SDS011;59083;47.974;21.722;2023-05-07T14:41:16;7.03;;;2.87;;
71298;SDS011;59083;47.974;21.722;2023-05-07T14:44:17;9.83;;;2.87;;
71298;SDS011;59083;47.974;21.722;2023-05-07T14:47:19;5.93;;;2.70;;
71298;SDS011;59083;47.974;21.722;2023-05-07T14:50:20;6.22;;;2.80;;
71298;SDS011;59083;47.974;21.722;2023-05-07T14:53:21;8.52;;;2.40;;
71298;SDS011;59083;47.974;21.722;2023-05-07T14:56:22;5.78;;;2.78;;
71298;SDS011;59083;47.974;21.722;2023-05-07T14:59:24;6.87;;;2.60;;
71298;SDS011;59083;47.974;21.722;2023-05-07T15:02:25;7.62;;;2.50;;
71298;SDS011;59083;47.974;21.722;2023-05-07T15:05:27;5.72;;;2.62;;
71298;SDS011;59083;47.974;21.722;2023-05-07T15:08:28;4.60;;;2.40;;
71298;SDS011;59083;47.974;21.722;2023-05-07T15:11:29;9.20;;;2.60;;
71298;SDS011;59083;47.974;21.722;2023-05-07T15:14:31;5.10;;;2.30;;
71298;SDS011;59083;47.974;21.722;2023-05-07T15:17:32;5.22;;;2.50;;
71298;SDS011;59083;47.974;21.722;2023-05-07T15:20:33;5.12;;;2.30;;
71298;SDS011;59083;47.974;21.722;2023-05-07T15:23:34;5.55;;;2.60;;
71298;SDS011;59083;47.974;21.722;2023-05-07T15:26:36;5.72;;;2.45;;
71298;SDS011;59083;47.974;21.722;2023-05-07T15:29:37;4.83;;;2.27;;
71298;SDS011;59083;47.974;21.722;2023-05-07T15:32:38;8.32;;;2.90;;
71298;SDS011;59083;47.974;21.722;2023-05-07T15:35:39;9.20;;;2.37;;
71298;SDS011;59083;47.974;21.722;2023-05-07T15:38:41;6.65;;;2.55;;
71298;SDS011;59083;47.974;21.722;2023-05-07T15:41:42;6.03;;;2.60;;
71298;SDS011;59083;47.974;21.722;2023-05-07T15:44:43;6.30;;;2.70;;
71298;SDS011;59083;47.974;21.722;2023-05-07T15:47:44;7.10;;;2.85;;
71298;SDS011;59083;47.974;21.722;2023-05-07T15:50:46;5.30;;;2.65;;
71298;SDS011;59083;47.974;21.722;2023-05-07T15:53:48;6.68;;;2.78;;
71298;SDS011;59083;47.974;21.722;2023-05-07T15:56:50;4.93;;;2.67;;
71298;SDS011;59083;47.974;21.722;2023-05-07T15:59:51;6.30;;;2.80;;
71298;SDS011;59083;47.974;21.722;2023-05-07T16:02:52;5.53;;;2.85;;
71298;SDS011;59083;47.974;21.722;2023-05-07T16:05:53;8.90;;;3.20;;
71298;SDS011;59083;47.974;21.722;2023-05-07T16:09:00;5.95;;;3.15;;
71298;SDS011;59083;47.974;21.722;2023-05-07T16:12:02;10.57;;;3.25;;
71298;SDS011;59083;47.974;21.722;2023-05-07T16:15:03;5.33;;;2.70;;
71298;SDS011;59083;47.974;21.722;2023-05-07T16:18:05;8.07;;;3.00;;
71298;SDS011;59083;47.974;21.722;2023-05-07T16:21:07;6.47;;;3.37;;
71298;SDS011;59083;47.974;21.722;2023-05-07T16:24:08;6.78;;;3.22;;
71298;SDS011;59083;47.974;21.722;2023-05-07T16:27:09;9.15;;;3.62;;
71298;SDS011;59083;47.974;21.722;2023-05-07T16:30:10;7.50;;;3.73;;
71298;SDS011;59083;47.974;21.722;2023-05-07T16:33:12;8.00;;;3.72;;
71298;SDS011;59083;47.974;21.722;2023-05-07T16:36:13;7.85;;;3.72;;
71298;SDS011;59083;47.974;21.722;2023-05-07T16:39:14;11.20;;;3.75;;
71298;SDS011;59083;47.974;21.722;2023-05-07T16:42:15;5.93;;;3.55;;
71298;SDS011;59083;47.974;21.722;2023-05-07T16:45:17;9.97;;;4.00;;
71298;SDS011;59083;47.974;21.722;2023-05-07T16:48:19;8.57;;;3.65;;
71298;SDS011;59083;47.974;21.722;2023-05-07T16:51:20;9.10;;;4.15;;
71298;SDS011;59083;47.974;21.722;2023-05-07T16:54:24;7.45;;;3.70;;
71298;SDS011;59083;47.974;21.722;2023-05-07T16:57:25;9.35;;;4.22;;
71298;SDS011;59083;47.974;21.722;2023-05-07T17:00:30;6.50;;;3.70;;
71298;SDS011;59083;47.974;21.722;2023-05-07T17:03:31;7.72;;;4.28;;
71298;SDS011;59083;47.974;21.722;2023-05-07T17:06:33;8.15;;;4.45;;
71298;SDS011;59083;47.974;21.722;2023-05-07T17:09:34;8.23;;;4.15;;
71298;SDS011;59083;47.974;21.722;2023-05-07T17:12:35;8.77;;;4.22;;
71298;SDS011;59083;47.974;21.722;2023-05-07T17:15:37;7.40;;;4.00;;
71298;SDS011;59083;47.974;21.722;2023-05-07T17:18:40;9.35;;;4.40;;
71298;SDS011;59083;47.974;21.722;2023-05-07T17:21:41;12.73;;;4.30;;
71298;SDS011;59083;47.974;21.722;2023-05-07T17:24:42;11.43;;;4.53;;
71298;SDS011;59083;47.974;21.722;2023-05-07T17:27:43;8.40;;;4.22;;
71298;SDS011;59083;47.974;21.722;2023-05-07T17:30:45;10.93;;;4.53;;
71298;SDS011;59083;47.974;21.722;2023-05-07T17:33:47;8.35;;;4.62;;
71298;SDS011;59083;47.974;21.722;2023-05-07T17:36:49;8.68;;;4.47;;
71298;SDS011;59083;47.974;21.722;2023-05-07T17:39:50;9.65;;;5.53;;
71298;SDS011;59083;47.974;21.722;2023-05-07T17:42:52;6.87;;;4.18;;
71298;SDS011;59083;47.974;21.722;2023-05-07T17:45:53;8.77;;;4.37;;
71298;SDS011;59083;47.974;21.722;2023-05-07T17:48:54;8.93;;;4.22;;
71298;SDS011;59083;47.974;21.722;2023-05-07T17:51:57;8.55;;;4.40;;
71298;SDS011;59083;47.974;21.722;2023-05-07T17:54:58;8.40;;;4.53;;
71298;SDS011;59083;47.974;21.722;2023-05-07T17:57:59;8.93;;;4.45;;
71298;SDS011;59083;47.974;21.722;2023-05-07T18:01:02;8.57;;;4.80;;
71298;SDS011;59083;47.974;21.722;2023-05-07T18:04:03;9.27;;;4.20;;
71298;SDS011;59083;47.974;21.722;2023-05-07T18:07:04;8.05;;;4.22;;